Hauptseite
METAR-TAF:

METAR-TAF

Flughäfen :

Flughafen Lublin-Świdnik

Lublin, Polen

Breite: 51-13-55N, Länge: 22-41-25E, Höhe: 203 m

Beobachtung

Neuester Wetterbericht von vor 44 Minuten, um 06:00 UTC
Wind 5 kt aus West/Nordwest
Temperatur 4°C
Luftfeuchtigkeit 60%
Luftdruck 1010 hPa
Sichtweite: 5000 m
feuchter Dunst

METAR: EPLB 290600Z 29005KT 5000 BR NSC 04/M03 Q1010

Zeit: 08:44 (06:44 UTC)

Prognose

Neuester Wetterbericht von vor 1 Stunde und 14 Minuten, um 05:30 UTC
Gültige Prognose vom 29 um 06 UTC bis 29 um 15 UTC
Wind 5 kt aus West/Nordwest
Sichtweite 10 km oder mehr
keine Wolken unter 1500 m und keine Kumulonimbus oder Gewitterwolken
Übergehend zu
vom 29 um 09 UTC bis 29 um 12 UTC
Wind 12 kt aus Nord

TAF: EPLB 290530Z 2906/2915 29005KT CAVOK BECMG 2909/2912 35012KT

Wetterbeobachtungen und Prognosen von mehr als 4000 Flughäfen (METAR und TAF Bericht).

Die verfügbaren Stationen werden durch gelbe und rote Markierungen auf der Karte dargestellt.

Führen Sie die Maus auf sie, um den Namen der Station zu sehen.

Darauf klicken, um die Beobachtung von Wetterbeobachtungen und Prognosen zu sehen.

Um die Karte zu ändern : klicken Sie auf den grünen Tasten mit einem schwarzen Kreuz Zum Vergrößern, auf den grünen Button mit einem Gedankenstrich zu verkleinern, oder auf die grünen Pfeile für benachbarte Karten.


METAR-TAF: